createdAt,value
2018-03-04T00:01:22.317Z,43.40
2018-03-04T00:03:50.714Z,43.75
2018-03-04T00:06:19.242Z,44.14
2018-03-04T00:08:48.350Z,44.08
2018-03-04T00:11:18.338Z,43.53
2018-03-04T00:13:46.839Z,43.80
2018-03-04T00:16:16.569Z,44.20
2018-03-04T00:18:45.386Z,43.94
2018-03-04T00:21:14.937Z,44.42
2018-03-04T00:23:44.668Z,43.59
2018-03-04T00:26:13.271Z,43.67
2018-03-04T00:28:43.491Z,43.39
2018-03-04T00:31:11.893Z,43.39
2018-03-04T00:33:40.331Z,43.37
2018-03-04T00:36:08.765Z,43.36
2018-03-04T00:38:39.179Z,43.63
2018-03-04T00:41:08.110Z,43.53
2018-03-04T00:43:37.528Z,43.95
2018-03-04T00:46:06.272Z,44.40
2018-03-04T00:48:37.262Z,43.89
2018-03-04T00:51:05.777Z,43.57
2018-03-04T00:53:34.988Z,44.10
2018-03-04T00:56:04.755Z,45.31
2018-03-04T00:58:34.463Z,45.73
2018-03-04T01:01:03.123Z,45.37
2018-03-04T01:03:32.978Z,45.82
2018-03-04T01:06:01.488Z,44.99
2018-03-04T01:08:30.117Z,45.98
2018-03-04T01:10:59.721Z,45.57
2018-03-04T01:13:28.787Z,45.33
2018-03-04T01:15:57.528Z,45.00
2018-03-04T01:18:28.305Z,46.45
2018-03-04T01:20:58.876Z,46.76
2018-03-04T01:23:27.298Z,46.60
2018-03-04T01:25:56.657Z,45.79
2018-03-04T01:28:25.608Z,45.89
2018-03-04T01:30:55.041Z,45.45
2018-03-04T01:33:24.818Z,45.89
2018-03-04T01:35:53.355Z,45.44
2018-03-04T01:38:24.395Z,45.32
2018-03-04T01:40:53.454Z,45.27
2018-03-04T01:43:23.121Z,45.90
2018-03-04T01:45:53.204Z,46.33
2018-03-04T01:48:21.838Z,46.20
2018-03-04T01:50:53.093Z,45.91
2018-03-04T01:53:24.188Z,45.21
2018-03-04T01:55:53.033Z,45.69
2018-03-04T01:58:23.152Z,46.38
2018-03-04T02:00:52.242Z,45.73
2018-03-04T02:03:21.139Z,46.36
2018-03-04T02:05:51.833Z,45.48
2018-03-04T02:08:20.448Z,45.26
2018-03-04T02:10:49.091Z,46.70
2018-03-04T02:13:19.005Z,46.49
2018-03-04T02:15:47.973Z,45.85
2018-03-04T02:18:18.679Z,46.21
2018-03-04T02:20:47.332Z,47.00
2018-03-04T02:23:16.905Z,47.47
2018-03-04T02:25:46.214Z,45.91
2018-03-04T02:28:15.064Z,45.10
2018-03-04T02:30:43.896Z,45.71
2018-03-04T02:33:12.652Z,46.40
2018-03-04T02:35:41.479Z,46.42
2018-03-04T02:38:10.264Z,46.67
2018-03-04T02:40:38.986Z,47.22
2018-03-04T02:43:08.729Z,47.91
2018-03-04T02:45:38.873Z,47.05
2018-03-04T02:48:07.850Z,46.39
2018-03-04T02:50:37.083Z,46.40
2018-03-04T02:53:05.609Z,46.46
2018-03-04T02:55:34.929Z,46.06
2018-03-04T02:58:03.507Z,45.64
2018-03-04T03:00:32.521Z,45.60
2018-03-04T03:03:01.294Z,46.91
2018-03-04T03:05:29.744Z,46.85
2018-03-04T03:07:58.704Z,46.83
2018-03-04T03:10:27.530Z,46.94
2018-03-04T03:12:55.931Z,47.09
2018-03-04T03:15:25.988Z,47.06
2018-03-04T03:17:54.900Z,46.52
2018-03-04T03:20:24.075Z,46.54
2018-03-04T03:22:52.930Z,46.92
2018-03-04T03:25:21.803Z,46.52
2018-03-04T03:27:50.827Z,46.85
2018-03-04T03:30:19.687Z,46.87
2018-03-04T03:32:49.510Z,47.07
2018-03-04T03:35:19.103Z,47.06
2018-03-04T03:37:48.037Z,46.14
2018-03-04T03:40:20.078Z,46.42
2018-03-04T03:42:48.897Z,47.17
2018-03-04T03:45:19.604Z,46.32
2018-03-04T03:47:48.145Z,46.25
2018-03-04T03:50:17.413Z,47.03
2018-03-04T03:52:46.619Z,47.14
2018-03-04T03:55:16.297Z,47.69
2018-03-04T03:57:46.017Z,47.66
2018-03-04T04:00:14.574Z,47.01
2018-03-04T04:02:45.553Z,46.49
2018-03-04T04:05:16.149Z,47.01
2018-03-04T04:07:44.932Z,46.98
2018-03-04T04:10:14.887Z,46.44
2018-03-04T04:12:44.072Z,46.77
2018-03-04T04:15:13.804Z,47.38
2018-03-04T04:17:43.697Z,47.27
2018-03-04T04:20:12.126Z,46.60
2018-03-04T04:22:42.509Z,46.94
2018-03-04T04:25:11.113Z,47.17
2018-03-04T04:27:41.445Z,46.33
2018-03-04T04:30:11.811Z,45.81
2018-03-04T04:32:40.837Z,45.83
2018-03-04T04:35:10.680Z,45.53
2018-03-04T04:37:39.646Z,45.56
2018-03-04T04:40:09.052Z,45.15
2018-03-04T04:42:38.579Z,45.79
2018-03-04T04:45:06.986Z,45.26
2018-03-04T04:47:36.329Z,45.32
2018-03-04T04:50:05.157Z,45.48
2018-03-04T04:52:37.819Z,46.07
2018-03-04T04:55:07.707Z,46.43
2018-03-04T04:57:36.256Z,47.24
2018-03-04T05:00:05.105Z,46.52
2018-03-04T05:02:33.712Z,47.08
2018-03-04T05:05:02.417Z,47.07
2018-03-04T05:07:33.203Z,46.89
2018-03-04T05:10:01.859Z,46.86
2018-03-04T05:12:31.168Z,46.89
2018-03-04T05:15:00.494Z,46.28
2018-03-04T05:17:28.924Z,46.95
2018-03-04T05:19:58.404Z,47.73
2018-03-04T05:22:27.224Z,47.83
2018-03-04T05:24:56.368Z,47.82
2018-03-04T05:27:24.907Z,47.14
2018-03-04T05:29:54.270Z,46.74
2018-03-04T05:32:24.623Z,46.96
2018-03-04T05:34:53.448Z,46.47
2018-03-04T05:37:22.305Z,46.96
2018-03-04T05:39:51.098Z,46.54
2018-03-04T05:42:19.900Z,47.09
2018-03-04T05:44:49.625Z,47.94
2018-03-04T05:47:18.396Z,48.57
2018-03-04T05:49:47.817Z,47.45
2018-03-04T05:52:16.660Z,46.39
2018-03-04T05:54:45.358Z,47.07
2018-03-04T05:57:15.901Z,47.79
2018-03-04T05:59:44.980Z,47.54
2018-03-04T06:02:13.869Z,47.24
2018-03-04T06:04:42.431Z,47.15
2018-03-04T06:07:12.949Z,46.50
2018-03-04T06:09:41.646Z,48.24
2018-03-04T06:12:10.317Z,47.14
2018-03-04T06:14:40.604Z,46.73
2018-03-04T06:17:10.878Z,45.57
2018-03-04T06:19:39.824Z,44.87
2018-03-04T06:22:09.243Z,45.37
2018-03-04T06:24:38.468Z,44.79
2018-03-04T06:27:06.886Z,43.26
2018-03-04T06:29:35.783Z,41.78
2018-03-04T06:32:04.977Z,41.21
2018-03-04T06:34:35.217Z,40.24
2018-03-04T06:37:04.025Z,38.79
2018-03-04T06:39:33.255Z,37.94
2018-03-04T06:42:03.930Z,37.57
2018-03-04T06:44:32.455Z,36.84
2018-03-04T06:47:01.236Z,38.14
2018-03-04T06:49:29.644Z,37.45
2018-03-04T06:51:59.027Z,38.23
2018-03-04T06:54:27.520Z,37.16
2018-03-04T06:56:57.716Z,34.87
2018-03-04T06:59:26.353Z,34.61
2018-03-04T07:01:54.825Z,34.22
2018-03-04T07:04:23.632Z,34.17
2018-03-04T07:06:52.239Z,33.02
2018-03-04T07:09:22.993Z,32.31
2018-03-04T07:11:52.078Z,31.58
2018-03-04T07:14:22.340Z,30.62
2018-03-04T07:16:51.397Z,29.34
2018-03-04T07:19:20.642Z,29.69
2018-03-04T07:21:51.568Z,28.40
2018-03-04T07:24:20.064Z,27.61
2018-03-04T07:26:49.228Z,28.52
2018-03-04T07:29:18.925Z,29.49
2018-03-04T07:31:47.422Z,29.83
2018-03-04T07:34:16.016Z,31.30
2018-03-04T07:36:45.751Z,30.98
2018-03-04T07:39:16.288Z,31.35
2018-03-04T07:41:45.202Z,30.99
2018-03-04T07:44:14.164Z,30.56
2018-03-04T07:46:45.013Z,28.77
2018-03-04T07:49:14.399Z,27.45
2018-03-04T07:51:44.055Z,25.49
2018-03-04T07:54:13.851Z,25.05
2018-03-04T07:56:42.728Z,24.32
2018-03-04T07:59:11.476Z,25.44
2018-03-04T08:01:46.162Z,26.76
2018-03-04T08:04:14.941Z,28.51
2018-03-04T08:06:43.715Z,30.36
2018-03-04T08:09:12.676Z,29.60
2018-03-04T08:11:42.831Z,29.47
2018-03-04T08:14:12.870Z,28.78
2018-03-04T08:16:41.814Z,28.65
2018-03-04T08:19:11.078Z,30.11
2018-03-04T08:21:41.004Z,30.47
2018-03-04T08:24:09.861Z,29.84
2018-03-04T08:26:56.282Z,30.73
2018-03-04T08:29:25.318Z,31.10
2018-03-04T08:31:53.833Z,29.07
2018-03-04T08:34:22.360Z,27.88
2018-03-04T08:36:52.607Z,27.29
2018-03-04T08:39:22.150Z,26.69
2018-03-04T08:41:51.764Z,26.79
2018-03-04T08:44:20.911Z,27.12
2018-03-04T08:46:51.271Z,25.82
2018-03-04T08:49:19.895Z,25.58
2018-03-04T08:51:49.976Z,25.26
2018-03-04T08:54:19.271Z,24.74
2018-03-04T08:56:49.265Z,24.94
2018-03-04T08:59:17.738Z,25.97
2018-03-04T09:01:46.239Z,25.90
2018-03-04T09:04:14.697Z,26.20
2018-03-04T09:06:43.179Z,27.46
2018-03-04T09:09:11.806Z,27.44
2018-03-04T09:11:40.654Z,27.35
2018-03-04T09:14:09.211Z,26.74
2018-03-04T09:16:37.655Z,26.28
2018-03-04T09:19:06.096Z,25.22
2018-03-04T09:21:35.080Z,24.51
2018-03-04T09:24:03.708Z,23.94
2018-03-04T09:26:32.164Z,24.38
2018-03-04T09:29:00.727Z,24.90
2018-03-04T09:31:29.260Z,24.49
2018-03-04T09:33:58.204Z,24.13
2018-03-04T09:36:26.692Z,22.35
2018-03-04T09:38:55.181Z,21.03
2018-03-04T09:41:23.632Z,21.15
2018-03-04T09:43:52.115Z,20.54
2018-03-04T09:46:20.614Z,20.55
2018-03-04T09:48:49.049Z,21.58
2018-03-04T09:51:17.891Z,22.24
2018-03-04T09:53:46.332Z,22.69
2018-03-04T09:56:14.838Z,23.04
2018-03-04T09:58:43.292Z,22.65
2018-03-04T10:01:11.748Z,22.25
2018-03-04T10:03:40.666Z,21.33
2018-03-04T10:06:09.167Z,21.00
2018-03-04T10:08:37.620Z,21.30
2018-03-04T10:11:06.585Z,21.53
2018-03-04T10:13:35.129Z,21.52
2018-03-04T10:16:03.612Z,21.25
2018-03-04T10:18:32.078Z,22.47
2018-03-04T10:21:01.004Z,22.76
2018-03-04T10:23:29.855Z,22.35
2018-03-04T10:25:58.314Z,22.44
2018-03-04T10:28:27.212Z,22.50
2018-03-04T10:30:56.057Z,22.48
2018-03-04T10:33:24.496Z,23.12
2018-03-04T10:35:52.994Z,22.69
2018-03-04T10:38:21.435Z,22.73
2018-03-04T10:40:50.297Z,23.14
2018-03-04T10:43:18.737Z,22.39
2018-03-04T10:45:47.222Z,22.04
2018-03-04T10:48:15.669Z,21.92
2018-03-04T10:50:44.517Z,21.95
2018-03-04T10:53:12.960Z,22.55
2018-03-04T10:55:41.477Z,22.80
2018-03-04T10:58:09.936Z,22.46
2018-03-04T11:00:44.028Z,22.29
2018-03-04T11:03:18.867Z,22.55
2018-03-04T11:05:47.384Z,22.75
2018-03-04T11:08:15.860Z,22.00
2018-03-04T11:10:44.319Z,22.31
2018-03-04T11:13:12.779Z,21.94
2018-03-04T11:15:41.222Z,21.18
2018-03-04T11:18:09.665Z,21.90
2018-03-04T11:20:38.189Z,22.72
2018-03-04T11:23:06.636Z,23.58
2018-03-04T11:25:35.072Z,24.43
2018-03-04T11:28:03.996Z,24.52
2018-03-04T11:30:32.448Z,24.45
2018-03-04T11:33:01.299Z,25.12
2018-03-04T11:35:29.745Z,25.32
2018-03-04T11:37:58.192Z,25.99
2018-03-04T11:40:27.029Z,26.07
2018-03-04T11:42:55.558Z,26.73
2018-03-04T11:45:24.085Z,27.03
2018-03-04T11:47:52.520Z,27.42
2018-03-04T11:50:21.390Z,27.83
2018-03-04T11:52:49.849Z,27.73
2018-03-04T11:55:18.326Z,29.08
2018-03-04T11:57:46.757Z,28.39
2018-03-04T12:00:15.695Z,27.72
2018-03-04T12:02:44.183Z,28.47
2018-03-04T12:05:12.628Z,28.86
2018-03-04T12:07:41.136Z,28.67
2018-03-04T12:10:09.617Z,28.83
2018-03-04T12:12:38.134Z,28.93
2018-03-04T12:15:06.580Z,29.18
2018-03-04T12:17:35.061Z,30.11
2018-03-04T12:20:03.520Z,29.55
2018-03-04T12:22:31.951Z,29.08
2018-03-04T12:25:00.390Z,28.76
2018-03-04T12:27:28.893Z,28.99
2018-03-04T12:29:57.333Z,28.68
2018-03-04T12:32:26.165Z,28.75
2018-03-04T12:34:54.609Z,29.10
2018-03-04T12:37:23.116Z,28.95
2018-03-04T12:39:51.551Z,29.27
2018-03-04T12:42:20.481Z,28.75
2018-03-04T12:44:49.839Z,28.99
2018-03-04T12:47:18.540Z,29.40
2018-03-04T12:49:47.004Z,29.89
2018-03-04T12:52:15.519Z,29.85
2018-03-04T12:54:44.025Z,29.57
2018-03-04T12:57:12.514Z,29.79
2018-03-04T12:59:40.948Z,29.86
2018-03-04T13:02:09.884Z,28.93
2018-03-04T13:04:38.357Z,29.17
2018-03-04T13:07:06.808Z,29.51
2018-03-04T13:09:35.243Z,29.50
2018-03-04T13:12:03.734Z,28.90
2018-03-04T13:14:32.177Z,29.78
2018-03-04T13:17:00.607Z,29.56
2018-03-04T13:19:29.046Z,29.82
2018-03-04T13:21:57.511Z,29.46
2018-03-04T13:24:25.981Z,28.69
2018-03-04T13:26:54.480Z,28.64
2018-03-04T13:29:22.972Z,28.81
2018-03-04T13:31:51.432Z,28.88
2018-03-04T13:34:19.879Z,28.75
2018-03-04T13:36:48.803Z,28.83
2018-03-04T13:39:17.297Z,29.79
2018-03-04T13:41:45.774Z,29.65
2018-03-04T13:44:14.208Z,29.38
2018-03-04T13:46:43.060Z,29.23
2018-03-04T13:49:11.531Z,28.84
2018-03-04T13:51:40.011Z,29.10
2018-03-04T13:54:08.492Z,28.97
2018-03-04T13:56:36.984Z,28.87
2018-03-04T13:59:05.412Z,29.16
2018-03-04T14:01:34.249Z,29.63
2018-03-04T14:04:02.700Z,29.57
2018-03-04T14:06:31.210Z,29.02
2018-03-04T14:08:59.669Z,28.32
2018-03-04T14:11:28.134Z,28.54
2018-03-04T14:13:56.995Z,28.15
2018-03-04T14:16:25.494Z,27.98
2018-03-04T14:18:54.333Z,28.00
2018-03-04T14:21:22.776Z,28.07
2018-03-04T14:23:51.629Z,29.21
2018-03-04T14:26:20.080Z,29.01
2018-03-04T14:28:48.564Z,29.32
2018-03-04T14:31:17.017Z,29.32
2018-03-04T14:33:45.478Z,28.88
2018-03-04T14:36:14.425Z,28.34
2018-03-04T14:38:42.901Z,27.96
2018-03-04T14:41:12.245Z,28.14
2018-03-04T14:43:40.768Z,28.29
2018-03-04T14:46:09.295Z,28.78
2018-03-04T14:48:37.712Z,28.75
2018-03-04T14:51:06.221Z,28.58
2018-03-04T14:53:34.672Z,28.71
2018-03-04T14:56:03.121Z,29.26
2018-03-04T14:58:31.564Z,28.53
2018-03-04T15:01:00.020Z,28.83
2018-03-04T15:03:28.538Z,29.46
2018-03-04T15:05:56.975Z,29.15
2018-03-04T15:08:25.811Z,28.51
2018-03-04T15:10:54.256Z,29.14
2018-03-04T15:13:22.728Z,29.13
2018-03-04T15:15:51.544Z,28.73
2018-03-04T15:18:20.057Z,29.06
2018-03-04T15:20:48.509Z,28.95
2018-03-04T15:23:16.989Z,29.23
2018-03-04T15:25:45.419Z,29.05
2018-03-04T15:28:13.848Z,28.56
2018-03-04T15:30:43.045Z,28.46
2018-03-04T15:33:11.896Z,29.17
2018-03-04T15:35:40.742Z,29.68
2018-03-04T15:38:09.229Z,29.10
2018-03-04T15:40:37.677Z,29.05
2018-03-04T15:43:06.108Z,29.38
2018-03-04T15:45:34.551Z,29.12
2018-03-04T15:48:02.990Z,28.72
2018-03-04T15:50:31.923Z,28.79
2018-03-04T15:53:00.440Z,28.99
2018-03-04T15:55:29.304Z,29.19
2018-03-04T15:57:57.817Z,28.82
2018-03-04T16:00:26.260Z,28.68
2018-03-04T16:02:54.719Z,28.44
2018-03-04T16:05:23.191Z,28.07
2018-03-04T16:07:51.632Z,28.55
2018-03-04T16:10:20.103Z,28.41
2018-03-04T16:12:48.542Z,28.56
2018-03-04T16:15:17.048Z,28.13
2018-03-04T16:17:45.481Z,28.53
2018-03-04T16:20:13.948Z,28.95
2018-03-04T16:22:42.373Z,28.44
2018-03-04T16:25:11.404Z,28.17
2018-03-04T16:27:39.846Z,28.46
2018-03-04T16:30:08.307Z,28.71
2018-03-04T16:32:36.745Z,28.78
2018-03-04T16:35:05.198Z,28.51
2018-03-04T16:37:33.956Z,28.97
2018-03-04T16:40:02.457Z,28.47
2018-03-04T16:42:30.911Z,28.33
2018-03-04T16:44:59.768Z,28.62
2018-03-04T16:47:28.325Z,28.66
2018-03-04T16:49:56.759Z,29.21
2018-03-04T16:52:25.705Z,29.34
2018-03-04T16:54:54.177Z,29.20
2018-03-04T16:57:22.621Z,29.48
2018-03-04T16:59:51.081Z,29.74
2018-03-04T17:02:19.643Z,29.05
2018-03-04T17:04:48.138Z,28.81
2018-03-04T17:07:16.676Z,29.20
2018-03-04T17:09:45.174Z,29.19
2018-03-04T17:12:13.784Z,28.82
2018-03-04T17:14:42.226Z,29.33
2018-03-04T17:17:10.673Z,29.77
2018-03-04T17:19:40.110Z,29.85
2018-03-04T17:22:08.577Z,29.62
2018-03-04T17:24:37.177Z,29.91
2018-03-04T17:27:05.659Z,29.07
2018-03-04T17:29:34.110Z,28.77
2018-03-04T17:32:02.645Z,29.15
2018-03-04T17:34:31.097Z,28.34
2018-03-04T17:36:59.614Z,29.17
2018-03-04T17:39:28.056Z,29.15
2018-03-04T17:41:56.503Z,28.56
2018-03-04T17:44:25.339Z,29.04
2018-03-04T17:46:53.920Z,28.88
2018-03-04T17:49:22.377Z,29.10
2018-03-04T17:51:50.873Z,29.05
2018-03-04T17:54:19.325Z,28.63
2018-03-04T17:56:48.269Z,28.95
2018-03-04T17:59:16.712Z,29.50
2018-03-04T18:01:45.216Z,29.27
2018-03-04T18:04:13.652Z,28.87
2018-03-04T18:06:42.600Z,29.02
2018-03-04T18:09:11.040Z,28.98
2018-03-04T18:11:39.543Z,29.47
2018-03-04T18:14:07.990Z,29.48
2018-03-04T18:16:36.824Z,29.26
2018-03-04T18:19:05.303Z,29.81
2018-03-04T18:21:33.800Z,30.02
2018-03-04T18:24:02.678Z,30.14
2018-03-04T18:26:31.120Z,30.29
2018-03-04T18:28:59.636Z,30.17
2018-03-04T18:31:28.112Z,30.26
2018-03-04T18:33:56.585Z,29.61
2018-03-04T18:36:25.053Z,29.79
2018-03-04T18:38:53.558Z,29.89
2018-03-04T18:41:22.008Z,29.73
2018-03-04T18:43:50.470Z,29.93
2018-03-04T18:46:19.312Z,30.34
2018-03-04T18:48:47.757Z,30.43
2018-03-04T18:51:16.683Z,30.32
2018-03-04T18:53:45.745Z,30.07
2018-03-04T18:56:14.575Z,30.22
2018-03-04T18:58:43.053Z,30.66
2018-03-04T19:01:11.501Z,31.22
2018-03-04T19:03:39.941Z,31.00
2018-03-04T19:06:08.836Z,30.97
2018-03-04T19:08:37.399Z,30.99
2018-03-04T19:11:05.858Z,30.72
2018-03-04T19:13:34.301Z,31.37
2018-03-04T19:16:03.266Z,30.82
2018-03-04T19:18:32.185Z,31.06
2018-03-04T19:21:01.092Z,31.24
2018-03-04T19:23:29.613Z,30.96
2018-03-04T19:25:58.070Z,30.97
2018-03-04T19:28:26.522Z,31.43
2018-03-04T19:30:55.016Z,31.71
2018-03-04T19:33:23.475Z,31.80
2018-03-04T19:35:52.406Z,31.64
2018-03-04T19:38:20.845Z,31.91
2018-03-04T19:40:49.893Z,31.82
2018-03-04T19:43:18.337Z,32.09
2018-03-04T19:45:46.855Z,31.52
2018-03-04T19:48:15.333Z,31.16
2018-03-04T19:50:43.789Z,31.45
2018-03-04T19:53:12.236Z,32.02
2018-03-04T19:55:41.593Z,31.85
2018-03-04T19:58:10.504Z,31.67
2018-03-04T20:00:39.507Z,31.50
2018-03-04T20:03:08.661Z,32.28
2018-03-04T20:05:37.125Z,31.64
2018-03-04T20:08:05.645Z,31.89
2018-03-04T20:10:34.101Z,31.80
2018-03-04T20:13:02.554Z,31.92
2018-03-04T20:15:31.413Z,32.20
2018-03-04T20:17:59.851Z,32.15
2018-03-04T20:20:28.386Z,32.30
2018-03-04T20:22:56.939Z,32.37
2018-03-04T20:25:25.396Z,32.75
2018-03-04T20:27:54.810Z,32.82
2018-03-04T20:30:23.306Z,32.86
2018-03-04T20:32:51.783Z,33.03
2018-03-04T20:35:20.232Z,33.30
2018-03-04T20:37:48.677Z,32.90
2018-03-04T20:40:17.120Z,33.33
2018-03-04T20:42:45.570Z,33.17
2018-03-04T20:45:14.421Z,32.72
2018-03-04T20:47:42.869Z,32.78
2018-03-04T20:50:11.351Z,32.32
2018-03-04T20:52:39.788Z,32.03
2018-03-04T20:55:08.749Z,32.41
2018-03-04T20:57:37.209Z,32.12
2018-03-04T21:00:05.691Z,32.62
2018-03-04T21:02:35.067Z,32.84
2018-03-04T21:05:04.020Z,33.10
2018-03-04T21:07:33.313Z,33.01
2018-03-04T21:10:03.396Z,32.69
2018-03-04T21:12:32.232Z,33.11
2018-03-04T21:15:00.847Z,32.90
2018-03-04T21:17:29.375Z,32.67
2018-03-04T21:19:58.957Z,32.92
2018-03-04T21:22:27.592Z,33.43
2018-03-04T21:24:56.973Z,33.15
2018-03-04T21:27:27.259Z,33.67
2018-03-04T21:29:58.347Z,33.92
2018-03-04T21:32:26.807Z,33.61
2018-03-04T21:34:55.602Z,33.70
2018-03-04T21:37:24.695Z,34.24
2018-03-04T21:39:53.187Z,33.69
2018-03-04T21:42:21.759Z,33.92
2018-03-04T21:44:50.818Z,33.40
2018-03-04T21:47:20.726Z,33.18
2018-03-04T21:49:49.185Z,33.03
2018-03-04T21:52:18.542Z,33.08
2018-03-04T21:54:47.300Z,33.55
2018-03-04T21:57:15.753Z,33.41
2018-03-04T21:59:44.306Z,33.63
2018-03-04T22:02:13.659Z,33.22
2018-03-04T22:04:42.936Z,33.51
2018-03-04T22:07:11.434Z,34.00
2018-03-04T22:09:40.608Z,33.84
2018-03-04T22:12:09.730Z,34.21
2018-03-04T22:14:39.970Z,34.10
2018-03-04T22:17:09.284Z,33.38
2018-03-04T22:19:37.731Z,33.99
2018-03-04T22:22:06.620Z,33.67
2018-03-04T22:24:35.924Z,33.62
2018-03-04T22:27:05.343Z,34.26
2018-03-04T22:29:35.796Z,34.26
2018-03-04T22:32:05.337Z,34.23
2018-03-04T22:34:35.566Z,33.86
2018-03-04T22:37:04.803Z,34.12
2018-03-04T22:39:34.388Z,33.93
2018-03-04T22:42:03.391Z,34.38
2018-03-04T22:44:32.336Z,33.99
2018-03-04T22:47:01.580Z,33.99
2018-03-04T22:49:31.551Z,33.56
2018-03-04T22:52:00.482Z,34.03
2018-03-04T22:54:30.127Z,34.29
2018-03-04T22:56:58.939Z,33.91
2018-03-04T22:59:27.569Z,33.84
2018-03-04T23:01:56.463Z,34.05
2018-03-04T23:04:26.036Z,34.49
2018-03-04T23:06:55.576Z,34.25
2018-03-04T23:09:25.860Z,34.08
2018-03-04T23:11:54.669Z,33.69
2018-03-04T23:14:23.440Z,34.02
2018-03-04T23:16:53.295Z,34.59
2018-03-04T23:19:23.313Z,34.34
2018-03-04T23:21:53.585Z,34.36
2018-03-04T23:24:22.284Z,34.21
2018-03-04T23:26:52.368Z,34.34
2018-03-04T23:29:24.041Z,34.35
2018-03-04T23:31:52.615Z,34.35
2018-03-04T23:34:22.913Z,34.70
2018-03-04T23:36:51.988Z,34.24
2018-03-04T23:39:22.030Z,34.64
2018-03-04T23:41:52.298Z,34.76
2018-03-04T23:44:20.757Z,34.92
2018-03-04T23:46:50.559Z,34.58
2018-03-04T23:49:19.855Z,34.19
2018-03-04T23:51:48.680Z,34.63
2018-03-04T23:54:17.187Z,34.85
2018-03-04T23:56:46.716Z,34.93
2018-03-04T23:59:15.459Z,35.38
